sensor_id;sensor_type;location;lat;lon;timestamp;temperature;humidity
435;DHT22;204;48.942;9.256;2023-04-08T00:01:04;9.90;1.00
435;DHT22;204;48.942;9.256;2023-04-08T00:03:30;9.90;1.00
435;DHT22;204;48.942;9.256;2023-04-08T00:05:56;9.90;1.00
435;DHT22;204;48.942;9.256;2023-04-08T00:08:22;9.90;1.00
435;DHT22;204;48.942;9.256;2023-04-08T00:10:47;9.90;1.00
435;DHT22;204;48.942;9.256;2023-04-08T00:13:13;9.90;1.00
435;DHT22;204;48.942;9.256;2023-04-08T00:15:40;9.90;1.00
435;DHT22;204;48.942;9.256;2023-04-08T00:18:06;9.90;1.00
435;DHT22;204;48.942;9.256;2023-04-08T00:20:32;9.90;1.00
435;DHT22;204;48.942;9.256;2023-04-08T00:22:58;9.90;1.00
435;DHT22;204;48.942;9.256;2023-04-08T00:25:24;9.90;1.00
435;DHT22;204;48.942;9.256;2023-04-08T00:27:49;9.90;1.00
435;DHT22;204;48.942;9.256;2023-04-08T00:30:15;9.90;1.00
435;DHT22;204;48.942;9.256;2023-04-08T00:32:41;9.90;1.00
435;DHT22;204;48.942;9.256;2023-04-08T00:35:07;9.90;1.00
435;DHT22;204;48.942;9.256;2023-04-08T00:37:32;9.90;1.00
435;DHT22;204;48.942;9.256;2023-04-08T00:39:59;9.90;1.00
435;DHT22;204;48.942;9.256;2023-04-08T00:42:25;9.90;1.00
435;DHT22;204;48.942;9.256;2023-04-08T00:44:50;9.90;1.00
435;DHT22;204;48.942;9.256;2023-04-08T00:47:16;9.90;1.00
435;DHT22;204;48.942;9.256;2023-04-08T00:49:43;9.90;1.00
435;DHT22;204;48.942;9.256;2023-04-08T00:52:08;9.90;1.00
435;DHT22;204;48.942;9.256;2023-04-08T00:54:36;9.90;1.00
435;DHT22;204;48.942;9.256;2023-04-08T00:57:02;9.90;1.00
435;DHT22;204;48.942;9.256;2023-04-08T00:59:29;9.90;1.00
435;DHT22;204;48.942;9.256;2023-04-08T01:02:05;9.90;1.00
435;DHT22;204;48.942;9.256;2023-04-08T01:05:03;9.90;1.00
435;DHT22;204;48.942;9.256;2023-04-08T01:07:36;9.90;1.00
435;DHT22;204;48.942;9.256;2023-04-08T01:10:15;9.90;1.00
435;DHT22;204;48.942;9.256;2023-04-08T01:12:51;9.90;1.00
435;DHT22;204;48.942;9.256;2023-04-08T01:15:18;9.80;1.00
435;DHT22;204;48.942;9.256;2023-04-08T01:17:45;9.80;1.00
435;DHT22;204;48.942;9.256;2023-04-08T01:20:12;9.80;1.00
435;DHT22;204;48.942;9.256;2023-04-08T01:25:23;9.80;1.00
435;DHT22;204;48.942;9.256;2023-04-08T01:27:49;9.70;1.00
435;DHT22;204;48.942;9.256;2023-04-08T01:30:18;9.60;1.00
435;DHT22;204;48.942;9.256;2023-04-08T01:32:45;9.60;1.00
435;DHT22;204;48.942;9.256;2023-04-08T01:35:11;9.50;1.00
435;DHT22;204;48.942;9.256;2023-04-08T01:37:38;9.50;1.00
435;DHT22;204;48.942;9.256;2023-04-08T01:40:05;9.50;1.00
435;DHT22;204;48.942;9.256;2023-04-08T01:42:33;9.50;1.00
435;DHT22;204;48.942;9.256;2023-04-08T01:45:00;9.50;1.00
435;DHT22;204;48.942;9.256;2023-04-08T01:47:27;9.50;1.00
435;DHT22;204;48.942;9.256;2023-04-08T01:49:54;9.50;1.00
435;DHT22;204;48.942;9.256;2023-04-08T01:52:21;9.50;1.00
435;DHT22;204;48.942;9.256;2023-04-08T01:54:47;9.50;1.00
435;DHT22;204;48.942;9.256;2023-04-08T01:57:18;9.50;1.00
435;DHT22;204;48.942;9.256;2023-04-08T01:59:47;9.50;1.00
435;DHT22;204;48.942;9.256;2023-04-08T02:02:16;9.40;1.00
435;DHT22;204;48.942;9.256;2023-04-08T02:04:45;9.30;1.00
435;DHT22;204;48.942;9.256;2023-04-08T02:07:11;9.30;1.00
435;DHT22;204;48.942;9.256;2023-04-08T02:09:37;9.30;1.00
435;DHT22;204;48.942;9.256;2023-04-08T02:12:02;9.30;1.00
435;DHT22;204;48.942;9.256;2023-04-08T02:14:28;9.40;1.00
435;DHT22;204;48.942;9.256;2023-04-08T02:17:04;9.30;1.00
435;DHT22;204;48.942;9.256;2023-04-08T02:22:52;9.30;1.00
435;DHT22;204;48.942;9.256;2023-04-08T02:25:24;9.30;1.00
435;DHT22;204;48.942;9.256;2023-04-08T02:27:51;9.30;1.00
435;DHT22;204;48.942;9.256;2023-04-08T02:30:17;9.30;1.00
435;DHT22;204;48.942;9.256;2023-04-08T02:32:44;9.30;1.00
435;DHT22;204;48.942;9.256;2023-04-08T02:35:11;9.30;1.00
435;DHT22;204;48.942;9.256;2023-04-08T02:37:37;9.20;1.00
435;DHT22;204;48.942;9.256;2023-04-08T02:40:03;9.20;1.00
435;DHT22;204;48.942;9.256;2023-04-08T02:42:29;9.20;1.00
435;DHT22;204;48.942;9.256;2023-04-08T02:44:56;9.10;1.00
435;DHT22;204;48.942;9.256;2023-04-08T02:47:21;9.10;1.00
435;DHT22;204;48.942;9.256;2023-04-08T02:49:47;9.10;1.00
435;DHT22;204;48.942;9.256;2023-04-08T02:52:12;9.10;1.00
435;DHT22;204;48.942;9.256;2023-04-08T02:54:38;9.00;1.00
435;DHT22;204;48.942;9.256;2023-04-08T02:57:03;9.00;1.00
435;DHT22;204;48.942;9.256;2023-04-08T02:59:29;9.00;1.00
435;DHT22;204;48.942;9.256;2023-04-08T03:01:55;9.00;1.00
435;DHT22;204;48.942;9.256;2023-04-08T03:04:21;9.00;1.00
435;DHT22;204;48.942;9.256;2023-04-08T03:06:46;9.00;1.00
435;DHT22;204;48.942;9.256;2023-04-08T03:09:12;9.00;1.00
435;DHT22;204;48.942;9.256;2023-04-08T03:11:37;9.00;1.00
435;DHT22;204;48.942;9.256;2023-04-08T03:14:03;8.90;1.00
435;DHT22;204;48.942;9.256;2023-04-08T03:16:28;8.90;1.00
435;DHT22;204;48.942;9.256;2023-04-08T03:18:54;9.00;1.00
435;DHT22;204;48.942;9.256;2023-04-08T03:21:20;8.90;1.00
435;DHT22;204;48.942;9.256;2023-04-08T03:23:45;8.90;1.00
435;DHT22;204;48.942;9.256;2023-04-08T03:26:11;8.80;1.00
435;DHT22;204;48.942;9.256;2023-04-08T03:28:36;8.90;1.00
435;DHT22;204;48.942;9.256;2023-04-08T03:31:03;8.90;1.00
435;DHT22;204;48.942;9.256;2023-04-08T03:33:29;8.80;1.00
435;DHT22;204;48.942;9.256;2023-04-08T03:35:54;8.80;1.00
435;DHT22;204;48.942;9.256;2023-04-08T03:38:20;8.80;1.00
435;DHT22;204;48.942;9.256;2023-04-08T03:40:46;8.70;1.00
435;DHT22;204;48.942;9.256;2023-04-08T03:43:12;8.70;1.00
435;DHT22;204;48.942;9.256;2023-04-08T03:45:37;8.60;1.00
435;DHT22;204;48.942;9.256;2023-04-08T03:48:03;8.60;1.00
435;DHT22;204;48.942;9.256;2023-04-08T03:50:29;8.50;1.00
435;DHT22;204;48.942;9.256;2023-04-08T03:52:55;8.40;1.00
435;DHT22;204;48.942;9.256;2023-04-08T03:55:20;8.30;1.00
435;DHT22;204;48.942;9.256;2023-04-08T03:57:46;8.30;1.00
435;DHT22;204;48.942;9.256;2023-04-08T04:00:12;8.10;1.00
435;DHT22;204;48.942;9.256;2023-04-08T04:02:37;8.10;1.00
435;DHT22;204;48.942;9.256;2023-04-08T04:05:03;8.00;1.00
435;DHT22;204;48.942;9.256;2023-04-08T04:07:29;7.90;1.00
435;DHT22;204;48.942;9.256;2023-04-08T04:09:55;7.80;1.00
435;DHT22;204;48.942;9.256;2023-04-08T04:12:22;7.80;1.00
435;DHT22;204;48.942;9.256;2023-04-08T04:14:48;7.70;1.00
435;DHT22;204;48.942;9.256;2023-04-08T04:17:13;7.60;1.00
435;DHT22;204;48.942;9.256;2023-04-08T04:19:39;7.60;1.00
435;DHT22;204;48.942;9.256;2023-04-08T04:22:05;7.50;1.00
435;DHT22;204;48.942;9.256;2023-04-08T04:24:30;7.40;1.00
435;DHT22;204;48.942;9.256;2023-04-08T04:26:56;7.40;1.00
435;DHT22;204;48.942;9.256;2023-04-08T04:29:21;7.30;1.00
435;DHT22;204;48.942;9.256;2023-04-08T04:31:47;7.30;1.00
435;DHT22;204;48.942;9.256;2023-04-08T04:34:12;7.20;1.00
435;DHT22;204;48.942;9.256;2023-04-08T04:36:38;7.20;1.00
435;DHT22;204;48.942;9.256;2023-04-08T04:39:03;7.10;1.00
435;DHT22;204;48.942;9.256;2023-04-08T04:41:29;7.10;1.00
435;DHT22;204;48.942;9.256;2023-04-08T04:43:55;7.10;1.00
435;DHT22;204;48.942;9.256;2023-04-08T04:46:20;7.00;1.00
435;DHT22;204;48.942;9.256;2023-04-08T04:48:46;7.00;1.00
435;DHT22;204;48.942;9.256;2023-04-08T04:51:11;7.10;1.00
435;DHT22;204;48.942;9.256;2023-04-08T04:53:37;7.10;1.00
435;DHT22;204;48.942;9.256;2023-04-08T04:56:03;7.20;1.00
435;DHT22;204;48.942;9.256;2023-04-08T04:58:29;7.20;1.00
435;DHT22;204;48.942;9.256;2023-04-08T05:00:55;7.30;1.00
435;DHT22;204;48.942;9.256;2023-04-08T05:03:20;7.30;1.00
435;DHT22;204;48.942;9.256;2023-04-08T05:05:53;7.40;1.00
435;DHT22;204;48.942;9.256;2023-04-08T05:08:19;7.50;1.00
435;DHT22;204;48.942;9.256;2023-04-08T05:10:45;7.60;1.00
435;DHT22;204;48.942;9.256;2023-04-08T05:13:11;7.70;1.00
435;DHT22;204;48.942;9.256;2023-04-08T05:15:36;7.70;1.00
435;DHT22;204;48.942;9.256;2023-04-08T05:18:02;7.80;1.00
435;DHT22;204;48.942;9.256;2023-04-08T05:20:28;7.90;1.00
435;DHT22;204;48.942;9.256;2023-04-08T05:22:54;7.90;1.00
435;DHT22;204;48.942;9.256;2023-04-08T05:25:19;8.00;1.00
435;DHT22;204;48.942;9.256;2023-04-08T05:27:45;8.00;1.00
435;DHT22;204;48.942;9.256;2023-04-08T05:30:11;8.10;1.00
435;DHT22;204;48.942;9.256;2023-04-08T05:32:37;8.20;1.00
435;DHT22;204;48.942;9.256;2023-04-08T05:35:03;8.30;1.00
435;DHT22;204;48.942;9.256;2023-04-08T05:37:29;8.40;1.00
435;DHT22;204;48.942;9.256;2023-04-08T05:39:54;8.50;1.00
435;DHT22;204;48.942;9.256;2023-04-08T05:42:20;8.50;1.00
435;DHT22;204;48.942;9.256;2023-04-08T05:44:46;8.60;1.00
435;DHT22;204;48.942;9.256;2023-04-08T05:47:11;8.60;1.00
435;DHT22;204;48.942;9.256;2023-04-08T05:49:37;8.70;1.00
435;DHT22;204;48.942;9.256;2023-04-08T05:52:03;8.80;1.00
435;DHT22;204;48.942;9.256;2023-04-08T05:54:28;8.90;1.00
435;DHT22;204;48.942;9.256;2023-04-08T05:56:54;8.90;1.00
435;DHT22;204;48.942;9.256;2023-04-08T05:59:20;9.10;1.00
435;DHT22;204;48.942;9.256;2023-04-08T06:01:45;9.10;1.00
435;DHT22;204;48.942;9.256;2023-04-08T06:04:11;9.20;1.00
435;DHT22;204;48.942;9.256;2023-04-08T06:06:37;9.30;1.00
435;DHT22;204;48.942;9.256;2023-04-08T06:09:04;9.40;1.00
435;DHT22;204;48.942;9.256;2023-04-08T06:11:30;9.50;1.00
435;DHT22;204;48.942;9.256;2023-04-08T06:13:55;9.70;1.00
435;DHT22;204;48.942;9.256;2023-04-08T06:16:21;9.80;1.00
435;DHT22;204;48.942;9.256;2023-04-08T06:18:47;9.90;1.00
435;DHT22;204;48.942;9.256;2023-04-08T06:21:12;10.00;1.00
435;DHT22;204;48.942;9.256;2023-04-08T06:23:38;10.10;1.00
435;DHT22;204;48.942;9.256;2023-04-08T06:26:03;10.20;1.00
435;DHT22;204;48.942;9.256;2023-04-08T06:28:30;10.20;1.00
435;DHT22;204;48.942;9.256;2023-04-08T06:30:56;10.30;1.00
435;DHT22;204;48.942;9.256;2023-04-08T06:33:22;10.40;1.00
435;DHT22;204;48.942;9.256;2023-04-08T06:35:47;10.50;1.00
435;DHT22;204;48.942;9.256;2023-04-08T06:38:13;10.50;1.00
435;DHT22;204;48.942;9.256;2023-04-08T06:40:39;10.60;1.00
435;DHT22;204;48.942;9.256;2023-04-08T06:43:05;10.60;1.00
435;DHT22;204;48.942;9.256;2023-04-08T06:45:32;10.70;1.00
435;DHT22;204;48.942;9.256;2023-04-08T06:47:58;10.80;1.00
435;DHT22;204;48.942;9.256;2023-04-08T06:50:23;10.80;1.00
435;DHT22;204;48.942;9.256;2023-04-08T06:52:49;11.00;1.00
435;DHT22;204;48.942;9.256;2023-04-08T06:55:15;11.20;1.00
435;DHT22;204;48.942;9.256;2023-04-08T06:57:40;11.20;1.00
435;DHT22;204;48.942;9.256;2023-04-08T07:00:06;11.20;1.00
435;DHT22;204;48.942;9.256;2023-04-08T07:02:33;11.20;1.00
435;DHT22;204;48.942;9.256;2023-04-08T07:04:58;11.40;1.00
435;DHT22;204;48.942;9.256;2023-04-08T07:07:24;11.40;1.00
435;DHT22;204;48.942;9.256;2023-04-08T07:09:50;11.40;1.00
435;DHT22;204;48.942;9.256;2023-04-08T07:12:16;11.50;1.00
435;DHT22;204;48.942;9.256;2023-04-08T07:14:41;11.60;1.00
435;DHT22;204;48.942;9.256;2023-04-08T07:17:07;11.50;1.00
435;DHT22;204;48.942;9.256;2023-04-08T07:19:32;11.60;1.00
435;DHT22;204;48.942;9.256;2023-04-08T07:21:58;11.60;1.00
435;DHT22;204;48.942;9.256;2023-04-08T07:24:24;11.70;1.00
435;DHT22;204;48.942;9.256;2023-04-08T07:26:49;11.90;1.00
435;DHT22;204;48.942;9.256;2023-04-08T07:29:15;12.10;1.00
435;DHT22;204;48.942;9.256;2023-04-08T07:31:44;12.20;1.00
435;DHT22;204;48.942;9.256;2023-04-08T07:34:10;12.30;1.00
435;DHT22;204;48.942;9.256;2023-04-08T07:36:36;12.50;1.00
435;DHT22;204;48.942;9.256;2023-04-08T07:39:02;12.70;1.00
435;DHT22;204;48.942;9.256;2023-04-08T07:41:28;12.90;1.00
435;DHT22;204;48.942;9.256;2023-04-08T07:43:53;13.00;1.00
435;DHT22;204;48.942;9.256;2023-04-08T07:46:20;12.90;1.00
435;DHT22;204;48.942;9.256;2023-04-08T07:48:45;12.90;1.00
435;DHT22;204;48.942;9.256;2023-04-08T07:51:11;12.90;1.00
435;DHT22;204;48.942;9.256;2023-04-08T07:53:38;13.00;1.00
435;DHT22;204;48.942;9.256;2023-04-08T07:56:10;13.10;1.00
435;DHT22;204;48.942;9.256;2023-04-08T07:58:36;13.40;1.00
435;DHT22;204;48.942;9.256;2023-04-08T08:01:02;13.50;1.00
435;DHT22;204;48.942;9.256;2023-04-08T08:03:27;13.70;1.00
435;DHT22;204;48.942;9.256;2023-04-08T08:05:53;13.80;1.00
435;DHT22;204;48.942;9.256;2023-04-08T08:08:19;13.80;1.00
435;DHT22;204;48.942;9.256;2023-04-08T08:10:44;13.90;1.00
435;DHT22;204;48.942;9.256;2023-04-08T08:13:10;14.10;1.00
435;DHT22;204;48.942;9.256;2023-04-08T08:15:39;14.20;1.00
435;DHT22;204;48.942;9.256;2023-04-08T08:18:05;14.20;1.00
435;DHT22;204;48.942;9.256;2023-04-08T08:20:30;14.30;1.00
435;DHT22;204;48.942;9.256;2023-04-08T08:22:56;14.40;1.00
435;DHT22;204;48.942;9.256;2023-04-08T08:25:21;14.60;1.00
435;DHT22;204;48.942;9.256;2023-04-08T08:27:47;14.50;1.00
435;DHT22;204;48.942;9.256;2023-04-08T08:30:13;14.60;1.00
435;DHT22;204;48.942;9.256;2023-04-08T08:32:39;14.50;1.00
435;DHT22;204;48.942;9.256;2023-04-08T08:35:05;14.40;1.00
435;DHT22;204;48.942;9.256;2023-04-08T08:37:30;14.50;1.00
435;DHT22;204;48.942;9.256;2023-04-08T08:39:56;14.60;1.00
435;DHT22;204;48.942;9.256;2023-04-08T08:42:23;14.60;1.00
435;DHT22;204;48.942;9.256;2023-04-08T08:44:49;14.50;1.00
435;DHT22;204;48.942;9.256;2023-04-08T08:47:17;14.40;1.00
435;DHT22;204;48.942;9.256;2023-04-08T08:49:43;14.30;1.00
435;DHT22;204;48.942;9.256;2023-04-08T08:52:10;14.40;1.00
435;DHT22;204;48.942;9.256;2023-04-08T08:54:36;14.30;1.00
435;DHT22;204;48.942;9.256;2023-04-08T08:57:02;14.30;1.00
435;DHT22;204;48.942;9.256;2023-04-08T08:59:28;14.20;1.00
435;DHT22;204;48.942;9.256;2023-04-08T09:01:53;14.30;1.00
435;DHT22;204;48.942;9.256;2023-04-08T09:04:20;14.30;1.00
435;DHT22;204;48.942;9.256;2023-04-08T09:06:48;14.30;1.00
435;DHT22;204;48.942;9.256;2023-04-08T09:09:18;14.40;1.00
435;DHT22;204;48.942;9.256;2023-04-08T09:11:45;14.50;1.00
435;DHT22;204;48.942;9.256;2023-04-08T09:14:22;14.60;1.00
435;DHT22;204;48.942;9.256;2023-04-08T09:16:48;14.80;1.00
435;DHT22;204;48.942;9.256;2023-04-08T09:19:14;15.00;1.00
435;DHT22;204;48.942;9.256;2023-04-08T09:21:39;15.20;1.00
435;DHT22;204;48.942;9.256;2023-04-08T09:24:06;15.20;1.00
435;DHT22;204;48.942;9.256;2023-04-08T09:26:32;15.40;1.00
435;DHT22;204;48.942;9.256;2023-04-08T09:29:03;15.40;1.00
435;DHT22;204;48.942;9.256;2023-04-08T09:31:34;15.60;1.00
435;DHT22;204;48.942;9.256;2023-04-08T09:34:10;15.90;1.00
435;DHT22;204;48.942;9.256;2023-04-08T09:36:36;16.20;1.00
435;DHT22;204;48.942;9.256;2023-04-08T09:39:02;16.30;1.00
435;DHT22;204;48.942;9.256;2023-04-08T09:41:28;16.60;1.00
435;DHT22;204;48.942;9.256;2023-04-08T09:43:57;16.90;1.00
435;DHT22;204;48.942;9.256;2023-04-08T09:49:04;16.90;1.00
435;DHT22;204;48.942;9.256;2023-04-08T09:51:47;16.70;1.00
435;DHT22;204;48.942;9.256;2023-04-08T09:54:18;16.50;1.00
435;DHT22;204;48.942;9.256;2023-04-08T09:57:00;16.20;1.00
435;DHT22;204;48.942;9.256;2023-04-08T09:59:29;16.00;1.00
435;DHT22;204;48.942;9.256;2023-04-08T10:02:00;16.00;1.00
435;DHT22;204;48.942;9.256;2023-04-08T10:04:31;15.80;1.00
435;DHT22;204;48.942;9.256;2023-04-08T10:07:06;15.60;1.00
435;DHT22;204;48.942;9.256;2023-04-08T10:09:33;15.60;1.00
435;DHT22;204;48.942;9.256;2023-04-08T10:12:00;15.50;1.00
435;DHT22;204;48.942;9.256;2023-04-08T10:14:26;15.20;1.00
435;DHT22;204;48.942;9.256;2023-04-08T10:17:25;15.20;1.00
435;DHT22;204;48.942;9.256;2023-04-08T10:19:52;15.20;1.00
435;DHT22;204;48.942;9.256;2023-04-08T10:27:44;14.90;1.00
435;DHT22;204;48.942;9.256;2023-04-08T10:32:56;14.60;1.00
435;DHT22;204;48.942;9.256;2023-04-08T10:35:34;14.60;1.00
435;DHT22;204;48.942;9.256;2023-04-08T10:38:00;14.50;1.00
435;DHT22;204;48.942;9.256;2023-04-08T10:40:26;14.20;1.00
435;DHT22;204;48.942;9.256;2023-04-08T10:42:55;14.00;1.00
435;DHT22;204;48.942;9.256;2023-04-08T10:45:21;13.90;1.00
435;DHT22;204;48.942;9.256;2023-04-08T10:47:47;13.90;1.00
435;DHT22;204;48.942;9.256;2023-04-08T10:50:19;13.90;1.00
435;DHT22;204;48.942;9.256;2023-04-08T10:52:49;13.90;1.00
435;DHT22;204;48.942;9.256;2023-04-08T10:55:15;13.70;1.00
435;DHT22;204;48.942;9.256;2023-04-08T10:57:41;13.50;1.00
435;DHT22;204;48.942;9.256;2023-04-08T11:00:10;13.40;1.00
435;DHT22;204;48.942;9.256;2023-04-08T11:02:39;13.30;1.00
435;DHT22;204;48.942;9.256;2023-04-08T11:05:05;13.20;1.00
435;DHT22;204;48.942;9.256;2023-04-08T11:07:31;13.20;1.00
435;DHT22;204;48.942;9.256;2023-04-08T11:10:01;13.20;1.00
435;DHT22;204;48.942;9.256;2023-04-08T11:12:27;13.20;1.00
435;DHT22;204;48.942;9.256;2023-04-08T11:14:52;13.20;1.00
435;DHT22;204;48.942;9.256;2023-04-08T11:17:19;13.10;1.00
435;DHT22;204;48.942;9.256;2023-04-08T11:19:45;13.10;1.00
435;DHT22;204;48.942;9.256;2023-04-08T11:22:12;13.00;1.00
435;DHT22;204;48.942;9.256;2023-04-08T11:24:38;13.00;1.00
435;DHT22;204;48.942;9.256;2023-04-08T11:27:04;13.00;1.00
435;DHT22;204;48.942;9.256;2023-04-08T11:29:33;13.10;1.00
435;DHT22;204;48.942;9.256;2023-04-08T11:31:59;13.20;1.00
435;DHT22;204;48.942;9.256;2023-04-08T11:34:24;13.20;1.00
435;DHT22;204;48.942;9.256;2023-04-08T11:36:51;13.30;1.00
435;DHT22;204;48.942;9.256;2023-04-08T11:39:17;13.20;1.00
435;DHT22;204;48.942;9.256;2023-04-08T11:41:42;13.10;1.00
435;DHT22;204;48.942;9.256;2023-04-08T11:44:08;13.00;1.00
435;DHT22;204;48.942;9.256;2023-04-08T11:46:34;13.00;1.00
435;DHT22;204;48.942;9.256;2023-04-08T11:49:01;12.90;1.00
435;DHT22;204;48.942;9.256;2023-04-08T11:51:27;13.00;1.00
435;DHT22;204;48.942;9.256;2023-04-08T11:53:53;13.20;1.00
435;DHT22;204;48.942;9.256;2023-04-08T11:56:21;13.10;1.00
435;DHT22;204;48.942;9.256;2023-04-08T11:58:47;13.10;1.00
435;DHT22;204;48.942;9.256;2023-04-08T12:01:13;13.10;1.00
435;DHT22;204;48.942;9.256;2023-04-08T12:03:53;13.10;1.00
435;DHT22;204;48.942;9.256;2023-04-08T12:06:18;12.90;1.00
435;DHT22;204;48.942;9.256;2023-04-08T12:08:44;12.90;1.00
435;DHT22;204;48.942;9.256;2023-04-08T12:11:09;12.90;1.00
435;DHT22;204;48.942;9.256;2023-04-08T12:13:36;13.00;1.00
435;DHT22;204;48.942;9.256;2023-04-08T12:16:02;13.20;1.00
435;DHT22;204;48.942;9.256;2023-04-08T12:18:27;13.40;1.00
435;DHT22;204;48.942;9.256;2023-04-08T12:20:53;13.50;1.00
435;DHT22;204;48.942;9.256;2023-04-08T12:23:19;13.70;1.00
435;DHT22;204;48.942;9.256;2023-04-08T12:25:44;14.00;1.00
435;DHT22;204;48.942;9.256;2023-04-08T12:28:10;14.10;1.00
435;DHT22;204;48.942;9.256;2023-04-08T12:30:36;14.40;1.00
435;DHT22;204;48.942;9.256;2023-04-08T12:33:02;14.70;1.00
435;DHT22;204;48.942;9.256;2023-04-08T12:35:28;15.00;1.00
435;DHT22;204;48.942;9.256;2023-04-08T12:37:53;15.20;1.00
435;DHT22;204;48.942;9.256;2023-04-08T12:40:19;15.40;1.00
435;DHT22;204;48.942;9.256;2023-04-08T12:42:45;15.60;1.00
435;DHT22;204;48.942;9.256;2023-04-08T12:45:10;15.80;1.00
435;DHT22;204;48.942;9.256;2023-04-08T12:47:36;15.90;1.00
435;DHT22;204;48.942;9.256;2023-04-08T12:50:02;16.10;1.00
435;DHT22;204;48.942;9.256;2023-04-08T12:52:27;16.40;1.00
435;DHT22;204;48.942;9.256;2023-04-08T12:54:53;16.60;1.00
435;DHT22;204;48.942;9.256;2023-04-08T12:57:18;16.60;1.00
435;DHT22;204;48.942;9.256;2023-04-08T12:59:44;16.50;1.00
435;DHT22;204;48.942;9.256;2023-04-08T13:02:10;16.50;1.00
435;DHT22;204;48.942;9.256;2023-04-08T13:04:35;16.50;1.00
435;DHT22;204;48.942;9.256;2023-04-08T13:07:01;16.50;1.00
435;DHT22;204;48.942;9.256;2023-04-08T13:09:28;16.60;1.00
435;DHT22;204;48.942;9.256;2023-04-08T13:11:55;16.50;1.00
435;DHT22;204;48.942;9.256;2023-04-08T13:14:20;16.40;1.00
435;DHT22;204;48.942;9.256;2023-04-08T13:16:46;16.20;1.00
435;DHT22;204;48.942;9.256;2023-04-08T13:19:12;15.80;1.00
435;DHT22;204;48.942;9.256;2023-04-08T13:21:37;15.50;1.00
435;DHT22;204;48.942;9.256;2023-04-08T13:24:03;15.30;1.00
435;DHT22;204;48.942;9.256;2023-04-08T13:26:29;15.00;1.00
435;DHT22;204;48.942;9.256;2023-04-08T13:28:54;14.70;1.00
435;DHT22;204;48.942;9.256;2023-04-08T13:31:20;14.60;1.00
435;DHT22;204;48.942;9.256;2023-04-08T13:33:46;14.40;1.00
435;DHT22;204;48.942;9.256;2023-04-08T13:36:11;14.30;1.00
435;DHT22;204;48.942;9.256;2023-04-08T13:38:37;14.20;1.00
435;DHT22;204;48.942;9.256;2023-04-08T13:41:02;14.30;1.00
435;DHT22;204;48.942;9.256;2023-04-08T13:43:28;14.70;1.00
435;DHT22;204;48.942;9.256;2023-04-08T13:45:54;15.00;1.00
435;DHT22;204;48.942;9.256;2023-04-08T13:48:22;15.20;1.00
435;DHT22;204;48.942;9.256;2023-04-08T13:50:47;15.50;1.00
435;DHT22;204;48.942;9.256;2023-04-08T13:53:14;15.50;1.00
435;DHT22;204;48.942;9.256;2023-04-08T13:55:39;15.70;1.00
435;DHT22;204;48.942;9.256;2023-04-08T13:58:05;15.90;1.00
435;DHT22;204;48.942;9.256;2023-04-08T14:00:31;16.10;1.00
435;DHT22;204;48.942;9.256;2023-04-08T14:02:57;16.30;1.00
435;DHT22;204;48.942;9.256;2023-04-08T14:05:22;16.40;99.90
435;DHT22;204;48.942;9.256;2023-04-08T14:07:48;16.50;99.90
435;DHT22;204;48.942;9.256;2023-04-08T14:10:13;16.50;99.90
435;DHT22;204;48.942;9.256;2023-04-08T14:12:41;16.40;99.90
435;DHT22;204;48.942;9.256;2023-04-08T14:15:08;16.20;99.90
435;DHT22;204;48.942;9.256;2023-04-08T14:17:33;16.00;99.90
435;DHT22;204;48.942;9.256;2023-04-08T14:20:00;15.80;99.90
435;DHT22;204;48.942;9.256;2023-04-08T14:22:26;15.60;1.00
435;DHT22;204;48.942;9.256;2023-04-08T14:24:52;15.50;1.00
435;DHT22;204;48.942;9.256;2023-04-08T14:27:17;15.50;1.00
435;DHT22;204;48.942;9.256;2023-04-08T14:29:43;15.10;1.00
435;DHT22;204;48.942;9.256;2023-04-08T14:32:08;14.90;1.00
435;DHT22;204;48.942;9.256;2023-04-08T14:34:34;14.80;1.00
435;DHT22;204;48.942;9.256;2023-04-08T14:37:00;14.80;1.00
435;DHT22;204;48.942;9.256;2023-04-08T14:39:25;14.70;1.00
435;DHT22;204;48.942;9.256;2023-04-08T14:41:51;14.70;1.00
435;DHT22;204;48.942;9.256;2023-04-08T14:44:17;14.40;1.00
435;DHT22;204;48.942;9.256;2023-04-08T14:46:42;14.30;1.00
435;DHT22;204;48.942;9.256;2023-04-08T14:49:08;14.30;1.00
435;DHT22;204;48.942;9.256;2023-04-08T14:51:33;14.00;1.00
435;DHT22;204;48.942;9.256;2023-04-08T14:54:02;13.90;1.00
435;DHT22;204;48.942;9.256;2023-04-08T14:56:27;13.90;1.00
435;DHT22;204;48.942;9.256;2023-04-08T14:58:53;13.80;1.00
435;DHT22;204;48.942;9.256;2023-04-08T15:01:18;13.90;1.00
435;DHT22;204;48.942;9.256;2023-04-08T15:03:44;14.00;1.00
435;DHT22;204;48.942;9.256;2023-04-08T15:06:10;13.90;1.00
435;DHT22;204;48.942;9.256;2023-04-08T15:08:41;13.90;1.00
435;DHT22;204;48.942;9.256;2023-04-08T15:11:07;13.90;1.00
435;DHT22;204;48.942;9.256;2023-04-08T15:13:33;13.80;1.00
435;DHT22;204;48.942;9.256;2023-04-08T15:16:00;13.80;1.00
435;DHT22;204;48.942;9.256;2023-04-08T15:18:26;13.70;1.00
435;DHT22;204;48.942;9.256;2023-04-08T15:20:52;13.70;1.00
435;DHT22;204;48.942;9.256;2023-04-08T15:23:17;13.70;1.00
435;DHT22;204;48.942;9.256;2023-04-08T15:25:43;13.70;1.00
435;DHT22;204;48.942;9.256;2023-04-08T15:28:08;13.60;1.00
435;DHT22;204;48.942;9.256;2023-04-08T15:30:34;13.70;1.00
435;DHT22;204;48.942;9.256;2023-04-08T15:33:01;13.70;1.00
435;DHT22;204;48.942;9.256;2023-04-08T15:35:27;13.70;1.00
435;DHT22;204;48.942;9.256;2023-04-08T15:37:53;13.80;1.00
435;DHT22;204;48.942;9.256;2023-04-08T15:40:19;13.80;1.00
435;DHT22;204;48.942;9.256;2023-04-08T15:42:44;13.70;1.00
435;DHT22;204;48.942;9.256;2023-04-08T15:45:10;13.60;1.00
435;DHT22;204;48.942;9.256;2023-04-08T15:47:36;13.50;1.00
435;DHT22;204;48.942;9.256;2023-04-08T15:50:02;13.50;1.00
435;DHT22;204;48.942;9.256;2023-04-08T15:52:27;13.20;1.00
435;DHT22;204;48.942;9.256;2023-04-08T15:54:53;13.10;1.00
435;DHT22;204;48.942;9.256;2023-04-08T15:57:19;13.10;1.00
435;DHT22;204;48.942;9.256;2023-04-08T15:59:51;13.10;1.00
435;DHT22;204;48.942;9.256;2023-04-08T16:02:17;13.10;1.00
435;DHT22;204;48.942;9.256;2023-04-08T16:04:42;13.20;1.00
435;DHT22;204;48.942;9.256;2023-04-08T16:07:08;13.20;1.00
435;DHT22;204;48.942;9.256;2023-04-08T16:09:33;13.20;1.00
435;DHT22;204;48.942;9.256;2023-04-08T16:11:59;13.30;1.00
435;DHT22;204;48.942;9.256;2023-04-08T16:14:24;13.20;1.00
435;DHT22;204;48.942;9.256;2023-04-08T16:16:50;13.20;1.00
435;DHT22;204;48.942;9.256;2023-04-08T16:19:16;13.00;1.00
435;DHT22;204;48.942;9.256;2023-04-08T16:21:41;12.80;1.00
435;DHT22;204;48.942;9.256;2023-04-08T16:24:07;12.60;1.00
435;DHT22;204;48.942;9.256;2023-04-08T16:26:33;12.50;1.00
435;DHT22;204;48.942;9.256;2023-04-08T16:28:59;12.30;1.00
435;DHT22;204;48.942;9.256;2023-04-08T16:31:25;12.30;1.00
435;DHT22;204;48.942;9.256;2023-04-08T16:33:50;12.20;1.00
435;DHT22;204;48.942;9.256;2023-04-08T16:36:16;12.10;1.00
435;DHT22;204;48.942;9.256;2023-04-08T16:38:43;12.10;1.00
435;DHT22;204;48.942;9.256;2023-04-08T16:41:08;12.10;1.00
435;DHT22;204;48.942;9.256;2023-04-08T16:43:35;12.20;1.00
435;DHT22;204;48.942;9.256;2023-04-08T16:46:14;12.10;1.00
435;DHT22;204;48.942;9.256;2023-04-08T16:48:39;12.10;1.00
435;DHT22;204;48.942;9.256;2023-04-08T16:51:06;12.20;1.00
435;DHT22;204;48.942;9.256;2023-04-08T16:53:32;12.20;1.00
435;DHT22;204;48.942;9.256;2023-04-08T16:55:58;12.30;1.00
435;DHT22;204;48.942;9.256;2023-04-08T16:58:23;12.30;1.00
435;DHT22;204;48.942;9.256;2023-04-08T17:00:49;12.30;1.00
435;DHT22;204;48.942;9.256;2023-04-08T17:03:15;12.20;1.00
435;DHT22;204;48.942;9.256;2023-04-08T17:05:41;12.20;1.00
435;DHT22;204;48.942;9.256;2023-04-08T17:08:06;12.20;1.00
435;DHT22;204;48.942;9.256;2023-04-08T17:10:32;12.10;1.00